Rechercher aéroport 
image banner adimage banner adimage banner ad
image banner ad

L71 - California City Muni

Situé à California City, United States

ICAO - L71, IATA -

Données fournies par Airmate  

Information générale

Coordonnées: N35°9'5" W118°1'0"
Élévation : 2454 feet MSL.
Variation magnétique : 14° East
Voir autres Aéroports à California

Données opérationnelles

Special qualification required
Heure actuelle UTC:
Heure actuelle locale:
Météo à : KMHV - Mojave Air And Space Port ( 16 km )
METAR: KMHV 262140Z AUTO 00000KT 10SM FEW110 29/12 A3002 RMK A01
Voir NOTAMs / SUP AIP / TFR affectant cet aéroport [VIEW]
Fréquences de communication: [VIEW]

Pistes:

Identifiant RWYQFULongueur (ft)Largeur (ft)SurfaceLDA (ft)
0675°602760ASPH
24256°602760ASPH

Coordonnées de l'aéroport

Adresse: California City United States

Vue satellite de L71